createdAt,value
2019-03-04T00:03:14.091Z,66.89
2019-03-04T00:07:18.280Z,67.29
2019-03-04T00:11:22.514Z,67.09
2019-03-04T00:15:26.755Z,67.21
2019-03-04T00:19:31.014Z,68.22
2019-03-04T00:23:35.240Z,67.54
2019-03-04T00:27:39.941Z,67.74
2019-03-04T00:31:44.510Z,67.91
2019-03-04T00:35:48.690Z,68.20
2019-03-04T00:39:52.932Z,68.16
2019-03-04T00:43:57.112Z,67.88
2019-03-04T00:48:02.163Z,68.03
2019-03-04T00:52:06.493Z,68.00
2019-03-04T00:56:11.999Z,68.17
2019-03-04T01:00:19.315Z,68.50
2019-03-04T01:04:26.417Z,68.12
2019-03-04T01:08:31.540Z,68.10
2019-03-04T01:12:35.983Z,68.13
2019-03-04T01:16:40.227Z,68.40
2019-03-04T01:20:44.466Z,67.81
2019-03-04T01:24:48.651Z,67.87
2019-03-04T01:28:54.833Z,67.72
2019-03-04T01:32:59.167Z,67.77
2019-03-04T01:37:03.782Z,67.67
2019-03-04T01:41:08.548Z,67.70
2019-03-04T01:45:14.384Z,67.62
2019-03-04T01:49:20.114Z,67.53
2019-03-04T01:53:26.591Z,67.64
2019-03-04T01:57:31.151Z,67.48
2019-03-04T02:05:38.369Z,67.86
2019-03-04T02:09:42.942Z,67.80
2019-03-04T02:13:47.215Z,67.88
2019-03-04T02:17:51.405Z,67.81
2019-03-04T02:21:55.649Z,67.94
2019-03-04T02:26:18.646Z,67.86
2019-03-04T02:30:26.357Z,67.99
2019-03-04T02:34:31.950Z,68.73
2019-03-04T02:38:37.493Z,68.27
2019-03-04T02:42:42.367Z,68.81
2019-03-04T02:46:46.592Z,68.41
2019-03-04T02:50:50.772Z,68.61
2019-03-04T02:54:55.309Z,68.67
2019-03-04T02:58:59.533Z,68.76
2019-03-04T03:03:03.858Z,69.00
2019-03-04T03:07:08.079Z,69.05
2019-03-04T03:11:13.268Z,69.06
2019-03-04T03:19:21.165Z,68.97
2019-03-04T03:23:26.191Z,69.01
2019-03-04T03:27:31.382Z,69.09
2019-03-04T03:31:36.824Z,69.24
2019-03-04T03:35:45.270Z,69.10
2019-03-04T03:39:49.460Z,69.06
2019-03-04T03:43:53.684Z,69.03
2019-03-04T03:47:57.916Z,69.36
2019-03-04T03:52:02.135Z,69.35
2019-03-04T03:56:06.379Z,69.27
2019-03-04T04:00:14.086Z,69.37
2019-03-04T04:04:18.332Z,69.45
2019-03-04T04:08:22.590Z,69.49
2019-03-04T04:12:26.837Z,69.39
2019-03-04T04:16:31.057Z,69.35
2019-03-04T04:20:35.291Z,69.24
2019-03-04T04:24:39.870Z,69.07
2019-03-04T04:28:44.401Z,69.01
2019-03-04T04:32:48.632Z,68.72
2019-03-04T04:36:54.407Z,68.84
2019-03-04T04:40:59.886Z,68.87
2019-03-04T04:45:04.738Z,68.97
2019-03-04T04:49:08.985Z,68.99
2019-03-04T04:53:13.179Z,68.95
2019-03-04T04:57:21.691Z,69.04
2019-03-04T05:01:26.051Z,69.07
2019-03-04T05:05:30.655Z,69.29
2019-03-04T05:09:35.052Z,69.51
2019-03-04T05:13:39.390Z,69.68
2019-03-04T05:17:43.651Z,69.64
2019-03-04T05:25:51.357Z,69.63
2019-03-04T05:29:55.728Z,69.70
2019-03-04T05:34:00.358Z,69.48
2019-03-04T05:38:04.597Z,69.49
2019-03-04T05:42:09.360Z,69.52
2019-03-04T05:46:13.878Z,69.44
2019-03-04T05:50:19.064Z,69.52
2019-03-04T05:54:24.103Z,69.41
2019-03-04T05:58:29.427Z,69.54
2019-03-04T06:02:33.606Z,69.52
2019-03-04T06:06:56.306Z,69.47
2019-03-04T06:11:02.788Z,69.81
2019-03-04T06:15:11.263Z,69.91
2019-03-04T06:19:15.449Z,69.99
2019-03-04T06:23:19.696Z,70.09
2019-03-04T06:27:24.038Z,70.06
2019-03-04T06:31:28.258Z,70.19
2019-03-04T06:35:34.384Z,69.94
2019-03-04T06:39:38.628Z,70.03
2019-03-04T06:43:44.226Z,70.09
2019-03-04T06:47:50.168Z,70.07
2019-03-04T06:51:55.671Z,70.20
2019-03-04T06:56:07.140Z,70.17
2019-03-04T07:00:52.990Z,70.14
2019-03-04T07:05:23.243Z,70.22
2019-03-04T07:09:27.558Z,70.06
2019-03-04T07:13:31.930Z,70.40
2019-03-04T07:17:36.740Z,70.21
2019-03-04T07:21:42.046Z,70.15
2019-03-04T07:25:46.312Z,69.26
2019-03-04T07:29:50.856Z,68.51
2019-03-04T07:33:55.598Z,67.49
2019-03-04T07:38:16.048Z,67.39
2019-03-04T07:42:21.630Z,66.98
2019-03-04T07:46:25.832Z,66.74
2019-03-04T07:50:30.102Z,65.57
2019-03-04T07:54:36.663Z,64.79
2019-03-04T07:58:42.522Z,64.17
2019-03-04T08:02:49.494Z,62.32
2019-03-04T08:07:23.035Z,61.40
2019-03-04T08:12:07.247Z,61.33
2019-03-04T08:16:11.996Z,60.33
2019-03-04T08:20:16.377Z,59.53
2019-03-04T08:24:20.612Z,58.21
2019-03-04T08:28:24.842Z,58.88
2019-03-04T08:32:31.043Z,58.06
2019-03-04T08:36:36.647Z,56.74
2019-03-04T08:40:42.432Z,56.74
2019-03-04T08:44:47.646Z,55.68
2019-03-04T08:48:52.987Z,54.81
2019-03-04T08:52:57.640Z,55.81
2019-03-04T08:57:04.158Z,50.96
2019-03-04T09:01:09.781Z,50.96
2019-03-04T09:05:14.985Z,53.90
2019-03-04T09:09:19.189Z,51.32
2019-03-04T09:13:23.810Z,52.23
2019-03-04T09:17:28.103Z,53.35
2019-03-04T09:21:32.282Z,53.20
2019-03-04T09:25:51.978Z,51.39
2019-03-04T09:29:56.896Z,53.16
2019-03-04T09:34:01.634Z,53.07
2019-03-04T09:38:06.902Z,53.33
2019-03-04T09:42:16.669Z,52.94
2019-03-04T09:46:21.695Z,53.00
2019-03-04T09:50:26.184Z,52.77
2019-03-04T09:54:30.720Z,51.26
2019-03-04T09:58:34.917Z,51.40
2019-03-04T10:02:44.519Z,51.75
2019-03-04T10:07:25.940Z,51.50
2019-03-04T10:12:06.740Z,50.27
2019-03-04T10:16:42.165Z,50.83
2019-03-04T10:21:30.274Z,50.99
2019-03-04T10:25:57.919Z,52.33
2019-03-04T10:30:46.321Z,52.47
2019-03-04T10:35:41.413Z,52.52
2019-03-04T10:40:08.873Z,51.82
2019-03-04T10:44:37.858Z,51.20
2019-03-04T10:48:42.292Z,51.36
2019-03-04T10:52:46.976Z,51.03
2019-03-04T10:56:51.251Z,51.38
2019-03-04T11:00:55.433Z,51.25
2019-03-04T11:04:59.674Z,51.55
2019-03-04T11:09:08.312Z,51.27
2019-03-04T11:13:13.178Z,50.93
2019-03-04T11:17:17.504Z,50.52
2019-03-04T11:21:21.792Z,49.96
2019-03-04T11:25:26.056Z,49.61
2019-03-04T11:29:30.318Z,49.35
2019-03-04T11:33:34.573Z,48.91
2019-03-04T11:37:39.088Z,48.19
2019-03-04T11:41:43.326Z,46.71
2019-03-04T11:45:47.508Z,47.89
2019-03-04T11:49:53.445Z,47.43
2019-03-04T11:53:57.888Z,47.66
2019-03-04T11:58:02.172Z,47.78
2019-03-04T12:02:09.921Z,47.05
2019-03-04T12:06:15.103Z,46.41
2019-03-04T12:10:19.700Z,45.91
2019-03-04T12:14:23.929Z,45.85
2019-03-04T12:18:28.151Z,45.53
2019-03-04T12:22:32.402Z,45.08
2019-03-04T12:26:36.635Z,44.84
2019-03-04T12:30:40.965Z,44.07
2019-03-04T12:34:45.692Z,44.18
2019-03-04T12:38:50.066Z,44.53
2019-03-04T12:42:54.412Z,43.98
2019-03-04T12:46:58.653Z,43.40
2019-03-04T12:51:03.906Z,43.14
2019-03-04T12:55:09.118Z,42.71
2019-03-04T12:59:13.297Z,42.39
2019-03-04T13:03:22.725Z,42.56
2019-03-04T13:07:27.384Z,42.72
2019-03-04T13:11:31.609Z,42.21
2019-03-04T13:15:36.144Z,42.43
2019-03-04T13:19:40.411Z,42.61
2019-03-04T13:23:44.608Z,41.80
2019-03-04T13:27:49.967Z,41.93
2019-03-04T13:31:54.993Z,42.11
2019-03-04T13:36:01.398Z,41.72
2019-03-04T13:40:07.273Z,41.57
2019-03-04T13:44:13.023Z,41.65
2019-03-04T13:48:19.316Z,40.49
2019-03-04T13:52:23.516Z,38.12
2019-03-04T13:56:27.723Z,39.62
2019-03-04T14:00:32.582Z,38.16
2019-03-04T14:04:38.553Z,37.87
2019-03-04T14:08:44.677Z,37.05
2019-03-04T14:12:51.495Z,37.68
2019-03-04T14:16:55.746Z,37.23
2019-03-04T14:21:02.249Z,37.83
2019-03-04T14:25:08.827Z,37.51
2019-03-04T14:29:13.547Z,36.81
2019-03-04T14:33:17.759Z,37.18
2019-03-04T14:37:22.021Z,37.50
2019-03-04T14:41:26.612Z,38.06
2019-03-04T14:45:33.713Z,38.11
2019-03-04T14:49:44.684Z,37.66
2019-03-04T14:53:45.986Z,37.94
2019-03-04T14:57:51.445Z,37.06
2019-03-04T15:01:55.775Z,37.01
2019-03-04T15:06:06.771Z,38.01
2019-03-04T15:10:06.837Z,37.78
2019-03-04T15:14:11.203Z,37.61
2019-03-04T15:18:17.230Z,37.21
2019-03-04T15:22:21.653Z,36.86
2019-03-04T15:26:25.899Z,36.61
2019-03-04T15:30:30.130Z,37.26
2019-03-04T15:34:34.355Z,37.35
2019-03-04T15:38:38.552Z,37.68
2019-03-04T15:42:43.394Z,37.84
2019-03-04T15:46:47.665Z,37.71
2019-03-04T15:50:51.946Z,37.12
2019-03-04T15:54:56.154Z,38.13
2019-03-04T15:59:00.438Z,37.63
2019-03-04T16:03:05.436Z,37.30
2019-03-04T16:07:11.829Z,36.78
2019-03-04T16:11:17.873Z,36.42
2019-03-04T16:15:22.394Z,37.14
2019-03-04T16:19:26.712Z,36.96
2019-03-04T16:23:32.960Z,36.43
2019-03-04T16:27:37.682Z,36.14
2019-03-04T16:31:43.363Z,36.14
2019-03-04T16:35:50.116Z,34.92
2019-03-04T16:39:54.624Z,35.74
2019-03-04T16:43:59.223Z,36.34
2019-03-04T16:48:08.771Z,36.93
2019-03-04T16:52:13.948Z,36.78
2019-03-04T16:56:18.718Z,37.14
2019-03-04T17:00:23.520Z,36.91
2019-03-04T17:04:28.760Z,36.80
2019-03-04T17:08:34.145Z,37.35
2019-03-04T17:12:39.939Z,38.57
2019-03-04T17:16:45.051Z,39.74
2019-03-04T17:20:49.276Z,40.66
2019-03-04T17:24:53.480Z,41.57
2019-03-04T17:28:58.673Z,42.30
2019-03-04T17:33:02.967Z,43.26
2019-03-04T17:37:07.277Z,43.54
2019-03-04T17:41:11.582Z,43.97
2019-03-04T17:45:17.758Z,44.32
2019-03-04T17:49:28.632Z,44.91
2019-03-04T17:53:33.143Z,45.20
2019-03-04T17:57:40.143Z,45.44
2019-03-04T18:01:46.995Z,45.96
2019-03-04T18:05:51.324Z,46.50
2019-03-04T18:09:57.553Z,46.31
2019-03-04T18:14:02.396Z,46.41
2019-03-04T18:18:07.130Z,46.65
2019-03-04T18:22:11.568Z,46.69
2019-03-04T18:26:48.607Z,46.91
2019-03-04T18:31:07.577Z,46.58
2019-03-04T18:35:34.680Z,46.43
2019-03-04T18:40:23.966Z,46.43
2019-03-04T18:45:06.808Z,46.05
2019-03-04T18:49:11.172Z,46.08
2019-03-04T18:53:15.490Z,46.08
2019-03-04T18:57:19.961Z,45.68
2019-03-04T19:01:25.316Z,45.29
2019-03-04T19:05:32.132Z,44.93
2019-03-04T19:09:36.478Z,44.98
2019-03-04T19:13:42.254Z,45.06
2019-03-04T19:17:50.131Z,44.63
2019-03-04T19:21:54.414Z,44.72
2019-03-04T19:25:58.658Z,44.34
2019-03-04T19:30:24.060Z,44.39
2019-03-04T19:34:37.215Z,44.93
2019-03-04T19:38:45.798Z,44.30
2019-03-04T19:42:58.174Z,44.30
2019-03-04T19:47:05.521Z,44.75
2019-03-04T19:51:17.947Z,44.76
2019-03-04T19:55:29.331Z,44.25
2019-03-04T19:59:38.246Z,43.87
2019-03-04T20:03:48.738Z,43.87
2019-03-04T20:07:56.249Z,44.07
2019-03-04T20:12:02.859Z,44.07
2019-03-04T20:16:09.471Z,43.98
2019-03-04T20:20:14.722Z,43.71
2019-03-04T20:24:20.460Z,43.63
2019-03-04T20:28:25.110Z,44.07
2019-03-04T20:32:32.392Z,43.64
2019-03-04T20:36:38.005Z,43.71
2019-03-04T20:40:42.272Z,43.49
2019-03-04T20:44:46.706Z,43.04
2019-03-04T20:48:51.179Z,43.23
2019-03-04T20:52:55.489Z,43.30
2019-03-04T20:57:00.124Z,42.82
2019-03-04T21:01:07.833Z,42.93
2019-03-04T21:05:15.867Z,42.03
2019-03-04T21:09:22.833Z,42.60
2019-03-04T21:13:35.206Z,42.38
2019-03-04T21:17:35.318Z,42.14
2019-03-04T21:21:39.752Z,42.17
2019-03-04T21:26:16.128Z,42.25
2019-03-04T21:31:00.570Z,41.86
2019-03-04T21:35:32.379Z,41.22
2019-03-04T21:39:48.693Z,41.06
2019-03-04T21:44:03.128Z,41.13
2019-03-04T21:48:17.590Z,40.96
2019-03-04T21:52:35.240Z,40.96
2019-03-04T21:56:56.342Z,40.96
2019-03-04T22:01:05.651Z,41.79
2019-03-04T22:05:13.108Z,41.79
2019-03-04T22:09:17.618Z,41.71
2019-03-04T22:13:21.891Z,41.71
2019-03-04T22:17:26.488Z,41.15
2019-03-04T22:21:30.813Z,41.16
2019-03-04T22:25:35.241Z,41.54
2019-03-04T22:29:40.281Z,41.54
2019-03-04T22:33:45.758Z,41.83
2019-03-04T22:37:51.948Z,42.10
2019-03-04T22:41:57.384Z,42.92
2019-03-04T22:46:03.598Z,42.92
2019-03-04T22:50:19.245Z,42.79
2019-03-04T22:54:35.738Z,42.95
2019-03-04T22:58:39.990Z,43.29
2019-03-04T23:02:54.681Z,43.53
2019-03-04T23:06:56.622Z,44.01
2019-03-04T23:11:06.148Z,44.57
2019-03-04T23:15:15.010Z,45.36
2019-03-04T23:19:20.690Z,45.36
2019-03-04T23:23:25.556Z,46.04
2019-03-04T23:27:32.797Z,46.27
2019-03-04T23:31:40.956Z,46.93
2019-03-04T23:35:45.417Z,46.93
2019-03-04T23:39:49.642Z,47.83
2019-03-04T23:43:53.997Z,47.95
2019-03-04T23:47:58.199Z,48.02
2019-03-04T23:52:02.447Z,48.21
2019-03-04T23:56:08.458Z,48.11
